sensor_id;sensor_type;location;lat;lon;timestamp;pressure;altitude;pressure_sealevel;temperature;humidity
39681;BME280;26327;42.550;23.120;2023-11-19T00:01:22;92664.69;;;3.25;98.70
39681;BME280;26327;42.550;23.120;2023-11-19T00:03:48;92665.91;;;3.21;98.67
39681;BME280;26327;42.550;23.120;2023-11-19T00:06:13;92656.97;;;3.25;98.25
39681;BME280;26327;42.550;23.120;2023-11-19T00:08:39;92666.31;;;3.26;98.34
39681;BME280;26327;42.550;23.120;2023-11-19T00:11:04;92719.56;;;3.61;97.92
39681;BME280;26327;42.550;23.120;2023-11-19T00:13:30;92703.78;;;3.56;98.19
39681;BME280;26327;42.550;23.120;2023-11-19T00:15:55;92741.38;;;3.84;97.51
39681;BME280;26327;42.550;23.120;2023-11-19T00:18:21;92717.09;;;3.69;97.26
39681;BME280;26327;42.550;23.120;2023-11-19T00:20:47;92682.75;;;3.42;98.10
39681;BME280;26327;42.550;23.120;2023-11-19T00:23:12;92621.91;;;3.15;97.52
39681;BME280;26327;42.550;23.120;2023-11-19T00:25:38;92740.81;;;3.90;97.63
39681;BME280;26327;42.550;23.120;2023-11-19T00:28:04;92689.03;;;3.58;96.91
39681;BME280;26327;42.550;23.120;2023-11-19T00:30:29;92682.09;;;3.31;97.57
39681;BME280;26327;42.550;23.120;2023-11-19T00:32:56;92737.53;;;3.61;97.69
39681;BME280;26327;42.550;23.120;2023-11-19T00:35:21;92672.25;;;3.26;98.00
39681;BME280;26327;42.550;23.120;2023-11-19T00:37:47;92724.41;;;3.64;97.74
39681;BME280;26327;42.550;23.120;2023-11-19T00:40:13;92771.69;;;3.81;98.79
39681;BME280;26327;42.550;23.120;2023-11-19T00:42:41;92767.75;;;3.76;98.87
39681;BME280;26327;42.550;23.120;2023-11-19T00:45:06;92732.22;;;3.72;98.33
39681;BME280;26327;42.550;23.120;2023-11-19T00:47:35;92729.56;;;3.64;98.37
39681;BME280;26327;42.550;23.120;2023-11-19T00:50:03;92763.84;;;3.82;98.08
39681;BME280;26327;42.550;23.120;2023-11-19T00:52:29;92742.13;;;3.67;98.42
39681;BME280;26327;42.550;23.120;2023-11-19T00:54:54;92659.22;;;3.10;99.20
39681;BME280;26327;42.550;23.120;2023-11-19T00:57:20;92787.59;;;3.94;98.65
39681;BME280;26327;42.550;23.120;2023-11-19T00:59:45;92700.63;;;3.34;98.86
39681;BME280;26327;42.550;23.120;2023-11-19T01:02:12;92725.22;;;3.64;98.03
39681;BME280;26327;42.550;23.120;2023-11-19T01:04:39;92769.13;;;3.81;98.58
39681;BME280;26327;42.550;23.120;2023-11-19T01:07:05;92764.16;;;3.69;98.92
39681;BME280;26327;42.550;23.120;2023-11-19T01:09:32;92716.56;;;3.38;98.59
39681;BME280;26327;42.550;23.120;2023-11-19T01:11:58;92699.66;;;3.35;98.69
39681;BME280;26327;42.550;23.120;2023-11-19T01:14:25;92782.88;;;3.89;98.22
39681;BME280;26327;42.550;23.120;2023-11-19T01:16:51;92688.63;;;3.15;98.82
39681;BME280;26327;42.550;23.120;2023-11-19T01:19:17;92766.63;;;3.61;100.00
39681;BME280;26327;42.550;23.120;2023-11-19T01:21:43;92705.91;;;3.23;99.38
39681;BME280;26327;42.550;23.120;2023-11-19T01:24:08;92753.44;;;3.46;99.34
39681;BME280;26327;42.550;23.120;2023-11-19T01:26:34;92760.47;;;3.44;100.00
39681;BME280;26327;42.550;23.120;2023-11-19T01:29:00;92711.75;;;3.15;100.00
39681;BME280;26327;42.550;23.120;2023-11-19T01:31:26;92763.41;;;3.50;99.71
39681;BME280;26327;42.550;23.120;2023-11-19T01:33:51;92732.81;;;3.19;100.00
39681;BME280;26327;42.550;23.120;2023-11-19T01:36:17;92782.63;;;3.45;99.99
39681;BME280;26327;42.550;23.120;2023-11-19T01:38:42;92772.63;;;3.42;100.00
39681;BME280;26327;42.550;23.120;2023-11-19T01:41:08;92762.78;;;3.38;99.84
39681;BME280;26327;42.550;23.120;2023-11-19T01:43:37;92809.69;;;3.77;99.51
39681;BME280;26327;42.550;23.120;2023-11-19T01:46:05;92802.78;;;3.77;98.72
39681;BME280;26327;42.550;23.120;2023-11-19T01:48:34;92731.72;;;3.22;99.35
39681;BME280;26327;42.550;23.120;2023-11-19T01:51:01;92786.56;;;3.40;100.00
39681;BME280;26327;42.550;23.120;2023-11-19T01:53:28;92737.28;;;3.17;99.52
39681;BME280;26327;42.550;23.120;2023-11-19T01:55:54;92732.56;;;3.12;99.65
39681;BME280;26327;42.550;23.120;2023-11-19T01:58:21;92729.31;;;3.10;98.12
39681;BME280;26327;42.550;23.120;2023-11-19T02:00:48;92763.19;;;3.33;98.74
39681;BME280;26327;42.550;23.120;2023-11-19T02:03:14;92739.97;;;3.15;98.42
39681;BME280;26327;42.550;23.120;2023-11-19T02:05:40;92774.97;;;3.36;98.74
39681;BME280;26327;42.550;23.120;2023-11-19T02:08:05;92796.94;;;3.48;98.98
39681;BME280;26327;42.550;23.120;2023-11-19T02:10:30;92763.44;;;3.40;99.10
39681;BME280;26327;42.550;23.120;2023-11-19T02:12:57;92780.97;;;3.54;99.28
39681;BME280;26327;42.550;23.120;2023-11-19T02:15:23;92792.44;;;3.60;100.00
39681;BME280;26327;42.550;23.120;2023-11-19T02:17:50;92677.78;;;2.94;98.09
39681;BME280;26327;42.550;23.120;2023-11-19T02:20:15;92783.53;;;3.54;98.70
39681;BME280;26327;42.550;23.120;2023-11-19T02:22:41;92721.69;;;3.28;98.72
39681;BME280;26327;42.550;23.120;2023-11-19T02:25:20;92737.72;;;3.50;97.79
39681;BME280;26327;42.550;23.120;2023-11-19T02:27:53;92775.50;;;3.67;97.66
39681;BME280;26327;42.550;23.120;2023-11-19T02:30:22;92813.78;;;3.70;98.88
39681;BME280;26327;42.550;23.120;2023-11-19T02:33:00;92750.63;;;3.40;98.50
39681;BME280;26327;42.550;23.120;2023-11-19T02:35:31;92795.00;;;3.60;99.34
39681;BME280;26327;42.550;23.120;2023-11-19T02:37:57;92759.41;;;3.37;99.74
39681;BME280;26327;42.550;23.120;2023-11-19T02:40:24;92758.47;;;3.38;99.82
39681;BME280;26327;42.550;23.120;2023-11-19T02:42:50;92715.59;;;3.39;98.88
39681;BME280;26327;42.550;23.120;2023-11-19T02:45:16;92680.13;;;3.15;98.85
39681;BME280;26327;42.550;23.120;2023-11-19T02:47:41;92774.00;;;3.74;99.00
39681;BME280;26327;42.550;23.120;2023-11-19T02:50:08;92797.78;;;3.86;98.94
39681;BME280;26327;42.550;23.120;2023-11-19T02:52:40;92719.56;;;3.33;98.86
39681;BME280;26327;42.550;23.120;2023-11-19T02:55:06;92776.91;;;3.61;98.48
39681;BME280;26327;42.550;23.120;2023-11-19T02:57:35;92774.47;;;3.60;98.27
39681;BME280;26327;42.550;23.120;2023-11-19T03:00:00;92789.16;;;3.67;98.55
39681;BME280;26327;42.550;23.120;2023-11-19T03:02:26;92773.69;;;3.50;99.80
39681;BME280;26327;42.550;23.120;2023-11-19T03:05:08;92755.72;;;3.50;98.19
39681;BME280;26327;42.550;23.120;2023-11-19T03:07:34;92787.47;;;3.48;98.86
39681;BME280;26327;42.550;23.120;2023-11-19T03:09:59;92778.34;;;3.36;100.00
39681;BME280;26327;42.550;23.120;2023-11-19T03:12:25;92746.75;;;3.16;99.33
39681;BME280;26327;42.550;23.120;2023-11-19T03:14:51;92662.25;;;2.76;99.98
39681;BME280;26327;42.550;23.120;2023-11-19T03:17:16;92741.59;;;3.16;99.47
39681;BME280;26327;42.550;23.120;2023-11-19T03:19:42;92710.31;;;2.94;99.06
39681;BME280;26327;42.550;23.120;2023-11-19T03:22:07;92706.97;;;2.74;99.07
39681;BME280;26327;42.550;23.120;2023-11-19T03:24:33;92671.75;;;2.57;100.00
39681;BME280;26327;42.550;23.120;2023-11-19T03:26:58;92714.53;;;2.75;99.83
39681;BME280;26327;42.550;23.120;2023-11-19T03:29:23;92757.72;;;2.99;99.67
39681;BME280;26327;42.550;23.120;2023-11-19T03:31:49;92701.84;;;2.64;100.00
39681;BME280;26327;42.550;23.120;2023-11-19T03:34:15;92701.16;;;2.72;100.00
39681;BME280;26327;42.550;23.120;2023-11-19T03:36:40;92777.56;;;3.07;100.00
39681;BME280;26327;42.550;23.120;2023-11-19T03:39:06;92789.47;;;2.89;100.00
39681;BME280;26327;42.550;23.120;2023-11-19T03:41:31;92740.06;;;2.58;100.00
39681;BME280;26327;42.550;23.120;2023-11-19T03:43:57;92761.25;;;2.69;100.00
39681;BME280;26327;42.550;23.120;2023-11-19T03:46:22;92780.84;;;2.90;100.00
39681;BME280;26327;42.550;23.120;2023-11-19T03:48:49;92685.53;;;2.27;100.00
39681;BME280;26327;42.550;23.120;2023-11-19T03:51:14;92733.72;;;2.52;100.00
39681;BME280;26327;42.550;23.120;2023-11-19T03:53:43;92825.25;;;3.09;100.00
39681;BME280;26327;42.550;23.120;2023-11-19T03:56:10;92724.81;;;2.46;100.00
39681;BME280;26327;42.550;23.120;2023-11-19T03:58:35;92758.41;;;2.63;100.00
39681;BME280;26327;42.550;23.120;2023-11-19T04:01:01;92820.53;;;2.95;100.00
39681;BME280;26327;42.550;23.120;2023-11-19T04:03:27;92811.88;;;2.96;100.00
39681;BME280;26327;42.550;23.120;2023-11-19T04:05:53;92811.91;;;2.87;100.00
39681;BME280;26327;42.550;23.120;2023-11-19T04:08:18;92801.06;;;2.83;100.00
39681;BME280;26327;42.550;23.120;2023-11-19T04:10:43;92737.88;;;2.34;100.00
39681;BME280;26327;42.550;23.120;2023-11-19T04:13:09;92747.63;;;2.40;100.00
39681;BME280;26327;42.550;23.120;2023-11-19T04:15:35;92761.66;;;2.45;100.00
39681;BME280;26327;42.550;23.120;2023-11-19T04:18:00;92827.03;;;2.90;100.00
39681;BME280;26327;42.550;23.120;2023-11-19T04:20:25;92821.34;;;2.86;100.00
39681;BME280;26327;42.550;23.120;2023-11-19T04:22:51;92851.75;;;2.91;100.00
39681;BME280;26327;42.550;23.120;2023-11-19T04:25:16;92844.16;;;2.79;100.00
39681;BME280;26327;42.550;23.120;2023-11-19T04:27:42;92834.81;;;2.78;100.00
39681;BME280;26327;42.550;23.120;2023-11-19T04:30:07;92840.38;;;2.93;100.00
39681;BME280;26327;42.550;23.120;2023-11-19T04:32:35;92783.66;;;2.58;100.00
39681;BME280;26327;42.550;23.120;2023-11-19T04:35:00;92848.06;;;2.83;100.00
39681;BME280;26327;42.550;23.120;2023-11-19T04:37:26;92833.50;;;2.84;100.00
39681;BME280;26327;42.550;23.120;2023-11-19T04:39:51;92812.81;;;2.57;100.00
39681;BME280;26327;42.550;23.120;2023-11-19T04:42:16;92844.69;;;2.64;100.00
39681;BME280;26327;42.550;23.120;2023-11-19T04:44:43;92797.78;;;2.33;100.00
39681;BME280;26327;42.550;23.120;2023-11-19T04:47:09;92817.66;;;2.40;100.00
39681;BME280;26327;42.550;23.120;2023-11-19T04:49:40;92841.56;;;2.70;100.00
39681;BME280;26327;42.550;23.120;2023-11-19T04:52:08;92835.78;;;2.68;100.00
39681;BME280;26327;42.550;23.120;2023-11-19T04:54:33;92856.03;;;2.80;100.00
39681;BME280;26327;42.550;23.120;2023-11-19T04:56:59;92792.69;;;2.42;100.00
39681;BME280;26327;42.550;23.120;2023-11-19T04:59:24;92834.41;;;2.54;100.00
39681;BME280;26327;42.550;23.120;2023-11-19T05:01:49;92814.16;;;2.61;100.00
39681;BME280;26327;42.550;23.120;2023-11-19T05:04:15;92852.91;;;2.67;100.00
39681;BME280;26327;42.550;23.120;2023-11-19T05:06:41;92819.97;;;2.43;100.00
39681;BME280;26327;42.550;23.120;2023-11-19T05:09:06;92809.16;;;2.40;100.00
39681;BME280;26327;42.550;23.120;2023-11-19T05:11:35;92836.84;;;2.56;100.00
39681;BME280;26327;42.550;23.120;2023-11-19T05:14:02;92890.91;;;3.02;100.00
39681;BME280;26327;42.550;23.120;2023-11-19T05:16:29;92860.66;;;2.87;99.86
39681;BME280;26327;42.550;23.120;2023-11-19T05:18:55;92873.88;;;2.92;100.00
39681;BME280;26327;42.550;23.120;2023-11-19T05:21:20;92877.81;;;2.86;99.59
39681;BME280;26327;42.550;23.120;2023-11-19T05:23:46;92880.25;;;2.88;99.68
39681;BME280;26327;42.550;23.120;2023-11-19T05:26:21;92810.09;;;2.39;100.00
39681;BME280;26327;42.550;23.120;2023-11-19T05:28:47;92892.63;;;2.82;100.00
39681;BME280;26327;42.550;23.120;2023-11-19T05:31:13;92832.91;;;2.42;100.00
39681;BME280;26327;42.550;23.120;2023-11-19T05:33:38;92792.50;;;2.25;100.00
39681;BME280;26327;42.550;23.120;2023-11-19T05:36:04;92865.88;;;2.66;100.00
39681;BME280;26327;42.550;23.120;2023-11-19T05:38:30;92846.56;;;2.62;100.00
39681;BME280;26327;42.550;23.120;2023-11-19T05:40:55;92879.78;;;2.82;100.00
39681;BME280;26327;42.550;23.120;2023-11-19T05:43:21;92832.66;;;2.55;99.63
39681;BME280;26327;42.550;23.120;2023-11-19T05:45:47;92887.66;;;3.00;99.05
39681;BME280;26327;42.550;23.120;2023-11-19T05:48:12;92899.81;;;3.08;98.78
39681;BME280;26327;42.550;23.120;2023-11-19T05:50:38;92876.81;;;2.77;98.89
39681;BME280;26327;42.550;23.120;2023-11-19T05:53:04;92890.09;;;2.92;99.43
39681;BME280;26327;42.550;23.120;2023-11-19T05:55:33;92819.16;;;2.52;99.67
39681;BME280;26327;42.550;23.120;2023-11-19T05:57:59;92884.97;;;2.92;98.84
39681;BME280;26327;42.550;23.120;2023-11-19T06:00:25;92828.19;;;2.57;99.57
39681;BME280;26327;42.550;23.120;2023-11-19T06:02:52;92800.31;;;2.13;99.50
39681;BME280;26327;42.550;23.120;2023-11-19T06:05:17;92893.03;;;2.68;99.65
39681;BME280;26327;42.550;23.120;2023-11-19T06:07:43;92834.19;;;2.17;99.57
39681;BME280;26327;42.550;23.120;2023-11-19T06:10:09;92895.53;;;2.39;99.77
39681;BME280;26327;42.550;23.120;2023-11-19T06:12:35;92919.72;;;2.56;100.00
39681;BME280;26327;42.550;23.120;2023-11-19T06:15:04;92885.28;;;2.49;100.00
39681;BME280;26327;42.550;23.120;2023-11-19T06:17:30;92918.66;;;2.68;100.00
39681;BME280;26327;42.550;23.120;2023-11-19T06:19:55;92902.06;;;2.72;100.00
39681;BME280;26327;42.550;23.120;2023-11-19T06:22:21;92836.38;;;2.31;100.00
39681;BME280;26327;42.550;23.120;2023-11-19T06:24:46;92851.81;;;2.60;99.16
39681;BME280;26327;42.550;23.120;2023-11-19T06:27:11;92868.44;;;2.75;98.73
39681;BME280;26327;42.550;23.120;2023-11-19T06:29:38;92815.38;;;2.37;98.67
39681;BME280;26327;42.550;23.120;2023-11-19T06:32:06;92901.00;;;2.75;98.96
39681;BME280;26327;42.550;23.120;2023-11-19T06:34:31;92885.19;;;2.60;99.05
39681;BME280;26327;42.550;23.120;2023-11-19T06:36:58;92874.91;;;2.60;99.47
39681;BME280;26327;42.550;23.120;2023-11-19T06:39:23;92914.09;;;2.81;98.93
39681;BME280;26327;42.550;23.120;2023-11-19T06:41:49;92854.50;;;2.39;98.98
39681;BME280;26327;42.550;23.120;2023-11-19T06:44:14;92889.06;;;2.55;99.69
39681;BME280;26327;42.550;23.120;2023-11-19T06:46:40;92831.63;;;2.27;99.46
39681;BME280;26327;42.550;23.120;2023-11-19T06:49:05;92858.25;;;2.35;99.51
39681;BME280;26327;42.550;23.120;2023-11-19T06:51:33;92915.16;;;2.69;99.43
39681;BME280;26327;42.550;23.120;2023-11-19T06:53:58;92889.91;;;2.65;98.66
39681;BME280;26327;42.550;23.120;2023-11-19T06:56:24;92892.06;;;2.60;98.12
39681;BME280;26327;42.550;23.120;2023-11-19T06:58:51;92907.72;;;2.57;99.36
39681;BME280;26327;42.550;23.120;2023-11-19T07:01:17;92874.25;;;2.18;98.88
39681;BME280;26327;42.550;23.120;2023-11-19T07:03:44;92938.59;;;2.45;99.30
39681;BME280;26327;42.550;23.120;2023-11-19T07:06:10;92865.72;;;2.08;99.38
39681;BME280;26327;42.550;23.120;2023-11-19T07:08:35;92935.91;;;2.47;100.00
39681;BME280;26327;42.550;23.120;2023-11-19T07:11:01;92923.66;;;2.30;99.96
39681;BME280;26327;42.550;23.120;2023-11-19T07:13:27;92825.28;;;1.81;99.77
39681;BME280;26327;42.550;23.120;2023-11-19T07:15:53;92925.78;;;2.55;100.00
39681;BME280;26327;42.550;23.120;2023-11-19T07:18:19;92900.13;;;2.45;99.99
39681;BME280;26327;42.550;23.120;2023-11-19T07:20:47;92916.19;;;2.47;100.00
39681;BME280;26327;42.550;23.120;2023-11-19T07:23:12;92875.09;;;2.28;100.00
39681;BME280;26327;42.550;23.120;2023-11-19T07:25:40;92924.56;;;2.49;100.00
39681;BME280;26327;42.550;23.120;2023-11-19T07:28:05;92924.97;;;2.55;100.00
39681;BME280;26327;42.550;23.120;2023-11-19T07:30:31;92927.16;;;2.59;100.00
39681;BME280;26327;42.550;23.120;2023-11-19T07:32:56;92908.09;;;2.42;100.00
39681;BME280;26327;42.550;23.120;2023-11-19T07:35:21;92958.84;;;2.89;99.57
39681;BME280;26327;42.550;23.120;2023-11-19T07:37:47;92932.31;;;2.78;99.35
39681;BME280;26327;42.550;23.120;2023-11-19T07:40:13;92891.50;;;2.56;98.82
39681;BME280;26327;42.550;23.120;2023-11-19T07:42:38;92906.19;;;2.44;99.26
39681;BME280;26327;42.550;23.120;2023-11-19T07:45:04;92971.50;;;2.80;100.00
39681;BME280;26327;42.550;23.120;2023-11-19T07:47:30;92900.69;;;2.49;100.00
39681;BME280;26327;42.550;23.120;2023-11-19T07:49:56;92842.84;;;2.26;99.58
39681;BME280;26327;42.550;23.120;2023-11-19T07:52:21;92965.06;;;3.05;99.96
39681;BME280;26327;42.550;23.120;2023-11-19T07:54:46;92920.41;;;2.68;100.00
39681;BME280;26327;42.550;23.120;2023-11-19T07:57:12;92931.81;;;2.84;99.39
39681;BME280;26327;42.550;23.120;2023-11-19T07:59:37;92956.84;;;3.02;99.02
39681;BME280;26327;42.550;23.120;2023-11-19T08:02:03;92918.31;;;2.92;97.84
39681;BME280;26327;42.550;23.120;2023-11-19T08:04:30;92938.81;;;2.82;98.04
39681;BME280;26327;42.550;23.120;2023-11-19T08:06:55;92959.41;;;3.02;98.34
39681;BME280;26327;42.550;23.120;2023-11-19T08:09:20;92973.19;;;3.20;98.13
39681;BME280;26327;42.550;23.120;2023-11-19T08:11:46;92959.53;;;3.10;97.62
39681;BME280;26327;42.550;23.120;2023-11-19T08:14:11;92989.81;;;3.26;98.04
39681;BME280;26327;42.550;23.120;2023-11-19T08:16:39;92955.88;;;2.93;98.26
39681;BME280;26327;42.550;23.120;2023-11-19T08:19:04;92973.72;;;3.04;97.83
39681;BME280;26327;42.550;23.120;2023-11-19T08:21:30;92934.63;;;2.81;98.05
39681;BME280;26327;42.550;23.120;2023-11-19T08:23:55;92891.50;;;2.56;97.53
39681;BME280;26327;42.550;23.120;2023-11-19T08:26:21;92913.59;;;2.88;97.20
39681;BME280;26327;42.550;23.120;2023-11-19T08:28:46;92963.88;;;3.29;96.48
39681;BME280;26327;42.550;23.120;2023-11-19T08:31:12;92852.78;;;2.69;96.02
39681;BME280;26327;42.550;23.120;2023-11-19T08:33:38;92906.97;;;2.85;96.96
39681;BME280;26327;42.550;23.120;2023-11-19T08:36:04;92960.53;;;3.38;96.99
39681;BME280;26327;42.550;23.120;2023-11-19T08:38:30;92981.03;;;3.28;96.66
39681;BME280;26327;42.550;23.120;2023-11-19T08:40:55;92954.13;;;3.13;96.41
39681;BME280;26327;42.550;23.120;2023-11-19T08:43:26;92952.53;;;3.12;96.27
39681;BME280;26327;42.550;23.120;2023-11-19T08:45:51;92950.22;;;3.09;95.74
39681;BME280;26327;42.550;23.120;2023-11-19T08:48:16;92978.59;;;3.17;97.44
39681;BME280;26327;42.550;23.120;2023-11-19T08:50:42;93002.69;;;3.35;97.17
39681;BME280;26327;42.550;23.120;2023-11-19T08:53:07;92934.28;;;3.05;96.23
39681;BME280;26327;42.550;23.120;2023-11-19T08:55:32;92963.88;;;3.29;96.49
39681;BME280;26327;42.550;23.120;2023-11-19T08:57:58;92950.34;;;3.17;95.13
39681;BME280;26327;42.550;23.120;2023-11-19T09:00:23;92949.94;;;3.12;95.11
39681;BME280;26327;42.550;23.120;2023-11-19T09:02:49;93002.03;;;3.62;94.81
39681;BME280;26327;42.550;23.120;2023-11-19T09:05:14;92985.66;;;3.63;94.19
39681;BME280;26327;42.550;23.120;2023-11-19T09:07:39;92995.41;;;3.69;93.88
39681;BME280;26327;42.550;23.120;2023-11-19T09:10:05;92921.44;;;3.25;94.03
39681;BME280;26327;42.550;23.120;2023-11-19T09:12:31;92987.97;;;3.66;94.48
39681;BME280;26327;42.550;23.120;2023-11-19T09:14:56;92972.13;;;3.71;93.98
39681;BME280;26327;42.550;23.120;2023-11-19T09:17:22;92964.31;;;3.63;94.14
39681;BME280;26327;42.550;23.120;2023-11-19T09:19:47;92922.53;;;3.41;94.26
39681;BME280;26327;42.550;23.120;2023-11-19T09:22:12;92962.66;;;3.71;93.55
39681;BME280;26327;42.550;23.120;2023-11-19T09:24:38;92985.66;;;4.02;93.04
39681;BME280;26327;42.550;23.120;2023-11-19T09:27:04;92974.53;;;4.01;92.38
39681;BME280;26327;42.550;23.120;2023-11-19T09:29:31;92946.19;;;4.67;90.05
39681;BME280;26327;42.550;23.120;2023-11-19T09:31:57;92979.97;;;5.73;86.18
39681;BME280;26327;42.550;23.120;2023-11-19T09:34:22;92977.66;;;6.75;83.37
39681;BME280;26327;42.550;23.120;2023-11-19T09:36:48;92956.19;;;6.74;81.74
39681;BME280;26327;42.550;23.120;2023-11-19T09:39:13;92895.28;;;6.04;81.55
39681;BME280;26327;42.550;23.120;2023-11-19T09:41:43;92950.09;;;7.34;80.20
39681;BME280;26327;42.550;23.120;2023-11-19T09:44:10;92925.31;;;9.39;75.64
39681;BME280;26327;42.550;23.120;2023-11-19T09:46:38;92887.91;;;10.25;64.04
39681;BME280;26327;42.550;23.120;2023-11-19T09:49:05;92872.38;;;8.72;69.45
39681;BME280;26327;42.550;23.120;2023-11-19T09:51:33;92892.34;;;9.56;66.96
39681;BME280;26327;42.550;23.120;2023-11-19T09:53:58;92859.03;;;8.83;67.94
39681;BME280;26327;42.550;23.120;2023-11-19T09:56:24;92809.63;;;8.62;66.77
39681;BME280;26327;42.550;23.120;2023-11-19T09:58:50;92862.56;;;8.59;67.77
39681;BME280;26327;42.550;23.120;2023-11-19T10:01:15;92900.31;;;9.92;66.83
39681;BME280;26327;42.550;23.120;2023-11-19T10:03:41;92886.47;;;10.37;63.71
39681;BME280;26327;42.550;23.120;2023-11-19T10:06:09;92912.97;;;9.72;63.24
39681;BME280;26327;42.550;23.120;2023-11-19T10:08:39;92939.91;;;9.09;66.47
39681;BME280;26327;42.550;23.120;2023-11-19T10:11:05;92864.13;;;8.05;68.90
39681;BME280;26327;42.550;23.120;2023-11-19T10:13:31;92901.00;;;7.66;70.19
39681;BME280;26327;42.550;23.120;2023-11-19T10:15:56;92881.59;;;7.21;71.48
39681;BME280;26327;42.550;23.120;2023-11-19T10:18:27;92877.16;;;7.06;73.14
39681;BME280;26327;42.550;23.120;2023-11-19T10:20:53;92817.13;;;7.52;71.49
39681;BME280;26327;42.550;23.120;2023-11-19T10:23:21;92860.66;;;8.29;69.62
39681;BME280;26327;42.550;23.120;2023-11-19T10:25:46;92916.81;;;9.00;68.27
39681;BME280;26327;42.550;23.120;2023-11-19T10:28:15;92909.31;;;10.04;63.79
39681;BME280;26327;42.550;23.120;2023-11-19T10:30:41;92923.41;;;9.64;66.31
39681;BME280;26327;42.550;23.120;2023-11-19T10:33:11;92815.63;;;9.16;63.31
39681;BME280;26327;42.550;23.120;2023-11-19T10:35:58;92905.88;;;9.12;65.47
39681;BME280;26327;42.550;23.120;2023-11-19T10:38:24;92907.00;;;8.79;68.71
39681;BME280;26327;42.550;23.120;2023-11-19T10:40:50;92868.16;;;8.15;66.81
39681;BME280;26327;42.550;23.120;2023-11-19T10:43:17;92891.13;;;7.94;68.52
39681;BME280;26327;42.550;23.120;2023-11-19T10:45:43;92903.44;;;7.84;69.65
39681;BME280;26327;42.550;23.120;2023-11-19T10:48:09;92828.09;;;7.06;71.30
39681;BME280;26327;42.550;23.120;2023-11-19T10:50:38;92936.03;;;7.36;71.78
39681;BME280;26327;42.550;23.120;2023-11-19T10:53:05;92920.06;;;7.49;72.22
39681;BME280;26327;42.550;23.120;2023-11-19T10:55:32;92894.59;;;9.28;64.93
39681;BME280;26327;42.550;23.120;2023-11-19T10:58:08;92848.84;;;8.81;65.12
39681;BME280;26327;42.550;23.120;2023-11-19T11:00:47;92913.53;;;10.43;62.67
39681;BME280;26327;42.550;23.120;2023-11-19T11:03:25;92824.16;;;11.39;59.13
39681;BME280;26327;42.550;23.120;2023-11-19T11:05:51;92881.81;;;13.32;53.74
39681;BME280;26327;42.550;23.120;2023-11-19T11:08:18;92870.09;;;13.89;49.87
39681;BME280;26327;42.550;23.120;2023-11-19T11:10:54;92830.31;;;14.46;50.09
39681;BME280;26327;42.550;23.120;2023-11-19T11:13:22;92839.75;;;16.44;42.86
39681;BME280;26327;42.550;23.120;2023-11-19T11:15:49;92825.84;;;18.13;39.16
39681;BME280;26327;42.550;23.120;2023-11-19T11:18:15;92829.47;;;19.29;34.88
39681;BME280;26327;42.550;23.120;2023-11-19T11:20:44;92795.22;;;19.41;32.79
39681;BME280;26327;42.550;23.120;2023-11-19T11:25:58;92850.06;;;17.25;34.86
39681;BME280;26327;42.550;23.120;2023-11-19T11:28:37;92841.16;;;16.90;36.17
39681;BME280;26327;42.550;23.120;2023-11-19T11:36:20;92792.44;;;18.02;32.18
39681;BME280;26327;42.550;23.120;2023-11-19T11:38:50;92828.16;;;18.33;32.35
39681;BME280;26327;42.550;23.120;2023-11-19T11:41:18;92826.94;;;18.94;31.98
39681;BME280;26327;42.550;23.120;2023-11-19T11:48:59;92809.25;;;17.41;33.53
39681;BME280;26327;42.550;23.120;2023-11-19T11:57:11;92817.22;;;17.65;33.84
39681;BME280;26327;42.550;23.120;2023-11-19T12:02:08;92776.56;;;17.07;34.65
39681;BME280;26327;42.550;23.120;2023-11-19T12:04:34;92796.50;;;15.47;37.17
39681;BME280;26327;42.550;23.120;2023-11-19T12:07:07;92817.88;;;16.07;37.55
39681;BME280;26327;42.550;23.120;2023-11-19T12:09:36;92799.16;;;16.28;36.86
39681;BME280;26327;42.550;23.120;2023-11-19T12:15:00;92819.47;;;16.58;36.50
39681;BME280;26327;42.550;23.120;2023-11-19T12:17:47;92822.88;;;16.15;36.32
39681;BME280;26327;42.550;23.120;2023-11-19T12:20:15;92733.22;;;15.25;36.40
39681;BME280;26327;42.550;23.120;2023-11-19T12:22:42;92764.72;;;15.75;37.01
39681;BME280;26327;42.550;23.120;2023-11-19T12:25:10;92800.91;;;16.34;35.45
39681;BME280;26327;42.550;23.120;2023-11-19T12:27:49;92794.72;;;15.79;36.58
39681;BME280;26327;42.550;23.120;2023-11-19T12:32:47;92777.97;;;14.59;37.98
39681;BME280;26327;42.550;23.120;2023-11-19T12:35:13;92780.66;;;13.40;41.97
39681;BME280;26327;42.550;23.120;2023-11-19T12:37:42;92768.28;;;13.08;43.26
39681;BME280;26327;42.550;23.120;2023-11-19T12:40:14;92734.34;;;12.88;43.79
39681;BME280;26327;42.550;23.120;2023-11-19T12:42:41;92786.84;;;13.26;44.92
39681;BME280;26327;42.550;23.120;2023-11-19T12:45:07;92724.16;;;13.00;44.58
39681;BME280;26327;42.550;23.120;2023-11-19T12:47:36;92795.97;;;13.02;43.35
39681;BME280;26327;42.550;23.120;2023-11-19T12:50:02;92714.13;;;12.01;44.91
39681;BME280;26327;42.550;23.120;2023-11-19T12:52:27;92791.06;;;12.32;47.93
39681;BME280;26327;42.550;23.120;2023-11-19T12:54:53;92662.34;;;12.19;44.34
39681;BME280;26327;42.550;23.120;2023-11-19T12:57:18;92743.69;;;12.63;44.44
39681;BME280;26327;42.550;23.120;2023-11-19T12:59:55;92756.06;;;12.47;46.97
39681;BME280;26327;42.550;23.120;2023-11-19T13:02:50;92765.53;;;12.20;47.35
39681;BME280;26327;42.550;23.120;2023-11-19T13:05:30;92684.91;;;11.22;48.50
39681;BME280;26327;42.550;23.120;2023-11-19T13:08:05;92785.91;;;11.61;49.42
39681;BME280;26327;42.550;23.120;2023-11-19T13:10:53;92784.13;;;11.19;51.95
39681;BME280;26327;42.550;23.120;2023-11-19T13:13:19;92722.66;;;10.39;51.85
39681;BME280;26327;42.550;23.120;2023-11-19T13:15:45;92749.38;;;10.48;52.38
39681;BME280;26327;42.550;23.120;2023-11-19T13:18:11;92747.81;;;10.38;55.33
39681;BME280;26327;42.550;23.120;2023-11-19T13:20:37;92704.88;;;10.06;53.61